createdAt,value
2018-03-18T00:01:41.619Z,24.17
2018-03-18T00:04:09.935Z,26.28
2018-03-18T00:06:38.312Z,27.30
2018-03-18T00:09:06.639Z,25.20
2018-03-18T00:11:34.988Z,22.58
2018-03-18T00:14:03.307Z,22.20
2018-03-18T00:16:31.651Z,25.68
2018-03-18T00:18:59.963Z,21.00
2018-03-18T00:21:28.310Z,21.47
2018-03-18T00:23:56.630Z,23.72
2018-03-18T00:26:24.980Z,23.70
2018-03-18T00:28:53.300Z,26.90
2018-03-18T00:31:21.639Z,25.60
2018-03-18T00:33:49.955Z,26.18
2018-03-18T00:36:18.303Z,23.37
2018-03-18T00:38:46.632Z,18.68
2018-03-18T00:41:14.970Z,24.95
2018-03-18T00:43:43.292Z,28.53
2018-03-18T00:46:11.638Z,20.27
2018-03-18T00:48:39.967Z,21.67
2018-03-18T00:51:08.338Z,22.38
2018-03-18T00:53:36.651Z,24.02
2018-03-18T00:56:04.991Z,20.23
2018-03-18T00:58:33.310Z,24.27
2018-03-18T01:01:01.660Z,24.38
2018-03-18T01:03:29.981Z,26.17
2018-03-18T01:05:58.337Z,22.12
2018-03-18T01:08:26.650Z,24.43
2018-03-18T01:10:54.991Z,21.78
2018-03-18T01:13:23.330Z,23.02
2018-03-18T01:15:51.687Z,25.98
2018-03-18T01:18:20.004Z,27.83
2018-03-18T01:20:48.327Z,24.02
2018-03-18T01:23:16.684Z,22.20
2018-03-18T01:25:45.006Z,23.80
2018-03-18T01:28:13.339Z,22.90
2018-03-18T01:30:41.654Z,24.12
2018-03-18T01:33:09.222Z,21.53
2018-03-18T01:35:37.545Z,25.30
2018-03-18T01:38:05.895Z,24.10
2018-03-18T01:40:34.220Z,22.62
2018-03-18T01:43:02.568Z,21.97
2018-03-18T01:45:30.887Z,25.03
2018-03-18T01:47:59.232Z,24.57
2018-03-18T01:50:27.562Z,20.17
2018-03-18T01:53:07.779Z,25.48
2018-03-18T01:55:36.115Z,24.07
2018-03-18T01:58:04.455Z,23.20
2018-03-18T02:00:32.822Z,23.15
2018-03-18T02:03:01.167Z,22.87
2018-03-18T02:05:29.483Z,23.83
2018-03-18T02:07:57.835Z,21.70
2018-03-18T02:10:26.159Z,23.78
2018-03-18T02:12:54.515Z,25.03
2018-03-18T02:15:22.831Z,29.23
2018-03-18T02:17:51.186Z,30.03
2018-03-18T02:20:19.515Z,28.35
2018-03-18T02:22:47.858Z,25.12
2018-03-18T02:25:16.182Z,29.37
2018-03-18T02:27:44.531Z,21.10
2018-03-18T02:30:12.851Z,27.78
2018-03-18T02:32:41.215Z,25.02
2018-03-18T02:35:09.549Z,24.87
2018-03-18T02:37:37.923Z,27.83
2018-03-18T02:40:06.244Z,28.13
2018-03-18T02:42:34.600Z,24.48
2018-03-18T02:45:02.915Z,25.57
2018-03-18T02:47:31.254Z,25.75
2018-03-18T02:49:59.584Z,24.75
2018-03-18T02:52:27.920Z,28.67
2018-03-18T02:54:56.253Z,30.37
2018-03-18T02:57:24.597Z,27.50
2018-03-18T02:59:52.919Z,20.20
2018-03-18T03:02:21.275Z,28.87
2018-03-18T03:04:49.594Z,25.82
2018-03-18T03:07:17.965Z,26.75
2018-03-18T03:09:46.281Z,26.92
2018-03-18T03:12:14.599Z,25.87
2018-03-18T03:14:42.939Z,24.80
2018-03-18T03:17:11.266Z,28.63
2018-03-18T03:19:39.621Z,27.72
2018-03-18T03:22:07.942Z,22.27
2018-03-18T03:24:36.275Z,27.47
2018-03-18T03:27:04.603Z,25.75
2018-03-18T03:29:32.973Z,25.65
2018-03-18T03:32:01.301Z,24.63
2018-03-18T03:34:29.643Z,24.10
2018-03-18T03:36:57.963Z,28.57
2018-03-18T03:39:26.303Z,22.87
2018-03-18T03:41:54.624Z,31.98
2018-03-18T03:44:22.967Z,23.03
2018-03-18T03:46:51.287Z,22.57
2018-03-18T03:49:19.636Z,22.18
2018-03-18T03:51:47.949Z,26.02
2018-03-18T03:54:16.287Z,22.55
2018-03-18T03:56:44.611Z,32.65
2018-03-18T03:59:12.951Z,28.57
2018-03-18T04:01:41.264Z,25.85
2018-03-18T04:04:09.615Z,23.58
2018-03-18T04:06:37.952Z,29.28
2018-03-18T04:09:06.291Z,22.52
2018-03-18T04:11:34.610Z,34.30
2018-03-18T04:14:02.951Z,26.58
2018-03-18T04:16:31.266Z,28.57
2018-03-18T04:18:59.619Z,29.67
2018-03-18T04:21:27.938Z,26.78
2018-03-18T04:23:56.283Z,25.93
2018-03-18T04:26:23.839Z,24.92
2018-03-18T04:28:52.211Z,25.63
2018-03-18T04:31:20.533Z,26.20
2018-03-18T04:33:48.873Z,30.38
2018-03-18T04:36:17.192Z,26.17
2018-03-18T04:38:44.762Z,28.40
2018-03-18T04:41:13.077Z,24.67
2018-03-18T04:43:40.659Z,25.00
2018-03-18T04:46:08.984Z,35.63
2018-03-18T04:48:37.330Z,25.33
2018-03-18T04:51:05.643Z,28.32
2018-03-18T04:53:33.959Z,23.35
2018-03-18T04:56:02.320Z,27.52
2018-03-18T04:58:30.636Z,28.82
2018-03-18T05:00:58.975Z,30.87
2018-03-18T05:03:27.298Z,25.70
2018-03-18T05:05:54.884Z,21.85
2018-03-18T05:08:23.195Z,23.75
2018-03-18T05:10:51.541Z,29.48
2018-03-18T05:13:19.865Z,23.92
2018-03-18T05:15:48.203Z,28.45
2018-03-18T05:18:16.520Z,24.98
2018-03-18T05:20:44.878Z,25.48
2018-03-18T05:23:13.194Z,22.70
2018-03-18T05:25:41.541Z,25.20
2018-03-18T05:28:09.863Z,24.97
2018-03-18T05:30:38.206Z,24.12
2018-03-18T05:33:06.522Z,22.67
2018-03-18T05:35:34.863Z,30.80
2018-03-18T05:38:03.211Z,28.20
2018-03-18T05:40:31.559Z,22.15
2018-03-18T05:42:59.883Z,25.12
2018-03-18T05:45:28.242Z,20.10
2018-03-18T05:47:56.554Z,22.88
2018-03-18T05:50:24.894Z,26.22
2018-03-18T05:52:53.210Z,21.32
2018-03-18T05:55:21.548Z,25.65
2018-03-18T05:57:49.879Z,30.05
2018-03-18T06:00:18.224Z,25.45
2018-03-18T06:02:46.544Z,26.25
2018-03-18T06:05:14.887Z,30.85
2018-03-18T06:07:43.212Z,29.60
2018-03-18T06:10:11.556Z,23.02
2018-03-18T06:12:39.878Z,26.27
2018-03-18T06:15:08.216Z,27.87
2018-03-18T06:17:36.542Z,20.33
2018-03-18T06:20:04.882Z,29.40
2018-03-18T06:22:33.205Z,25.27
2018-03-18T06:25:01.611Z,28.75
2018-03-18T06:27:29.911Z,24.80
2018-03-18T06:29:58.250Z,22.53
2018-03-18T06:32:26.568Z,20.85
2018-03-18T06:34:54.878Z,25.47
2018-03-18T06:37:23.223Z,20.92
2018-03-18T06:39:51.540Z,21.43
2018-03-18T06:42:19.888Z,24.42
2018-03-18T06:44:48.204Z,27.23
2018-03-18T06:47:16.567Z,26.45
2018-03-18T06:49:44.874Z,24.70
2018-03-18T06:52:13.214Z,28.12
2018-03-18T06:54:41.535Z,28.78
2018-03-18T06:57:09.884Z,20.48
2018-03-18T06:59:38.202Z,22.00
2018-03-18T07:02:06.541Z,20.83
2018-03-18T07:04:34.875Z,22.58
2018-03-18T07:07:03.274Z,22.33
2018-03-18T07:09:31.588Z,19.82
2018-03-18T07:11:59.938Z,17.25
2018-03-18T07:14:27.496Z,25.73
2018-03-18T07:16:55.881Z,28.40
2018-03-18T07:19:24.195Z,29.35
2018-03-18T07:21:52.542Z,22.42
2018-03-18T07:24:20.854Z,43.63
2018-03-18T07:26:49.201Z,36.17
2018-03-18T07:29:17.523Z,22.27
2018-03-18T07:31:45.885Z,25.22
2018-03-18T07:34:14.207Z,29.08
2018-03-18T07:36:42.539Z,22.75
2018-03-18T07:39:10.912Z,22.20
2018-03-18T07:41:39.229Z,29.63
2018-03-18T07:44:07.546Z,33.37
2018-03-18T07:46:35.899Z,33.35
2018-03-18T07:49:04.227Z,19.45
2018-03-18T07:51:32.596Z,21.00
2018-03-18T07:54:00.922Z,28.82
2018-03-18T07:56:29.262Z,22.27
2018-03-18T07:58:57.610Z,26.22
2018-03-18T08:01:25.942Z,29.57
2018-03-18T08:03:54.251Z,23.08
2018-03-18T08:06:22.591Z,28.00
2018-03-18T08:08:50.915Z,30.48
2018-03-18T08:11:19.272Z,27.90
2018-03-18T08:13:47.594Z,23.95
2018-03-18T08:16:15.907Z,31.95
2018-03-18T08:18:44.248Z,21.80
2018-03-18T08:21:12.577Z,25.57
2018-03-18T08:23:40.150Z,30.70
2018-03-18T08:26:08.470Z,34.18
2018-03-18T08:28:36.815Z,32.77
2018-03-18T08:31:05.137Z,28.37
2018-03-18T08:33:33.475Z,14.88
2018-03-18T08:36:01.795Z,21.10
2018-03-18T08:38:30.134Z,22.33
2018-03-18T08:40:58.455Z,27.35
2018-03-18T08:43:26.794Z,18.35
2018-03-18T08:45:55.111Z,23.10
2018-03-18T08:48:23.450Z,29.95
2018-03-18T08:50:51.772Z,20.08
2018-03-18T08:53:20.132Z,18.08
2018-03-18T08:55:48.452Z,21.63
2018-03-18T08:58:16.794Z,21.05
2018-03-18T09:00:45.112Z,19.25
2018-03-18T09:03:13.458Z,23.67
2018-03-18T09:05:41.780Z,18.42
2018-03-18T09:08:10.131Z,19.52
2018-03-18T09:10:38.460Z,13.33
2018-03-18T09:13:06.803Z,19.87
2018-03-18T09:15:35.125Z,16.95
2018-03-18T09:18:03.458Z,15.53
2018-03-18T09:20:31.778Z,18.05
2018-03-18T09:23:00.161Z,19.30
2018-03-18T09:25:28.465Z,18.92
2018-03-18T09:27:56.830Z,18.05
2018-03-18T09:30:25.150Z,18.20
2018-03-18T09:32:53.498Z,16.70
2018-03-18T09:35:21.816Z,12.77
2018-03-18T09:37:50.160Z,16.22
2018-03-18T09:40:18.481Z,22.38
2018-03-18T09:42:46.830Z,21.25
2018-03-18T09:45:15.156Z,19.05
2018-03-18T09:47:43.491Z,21.75
2018-03-18T09:50:11.844Z,16.92
2018-03-18T09:52:40.187Z,25.00
2018-03-18T09:55:08.501Z,17.87
2018-03-18T09:57:36.820Z,18.72
2018-03-18T10:00:05.165Z,14.68
2018-03-18T10:02:33.505Z,17.35
2018-03-18T10:05:01.847Z,17.37
2018-03-18T10:07:30.174Z,18.23
2018-03-18T10:09:58.541Z,19.95
2018-03-18T10:12:26.857Z,18.38
2018-03-18T10:14:55.194Z,18.42
2018-03-18T10:17:23.511Z,19.62
2018-03-18T10:19:51.856Z,19.92
2018-03-18T10:22:20.177Z,25.50
2018-03-18T10:24:48.529Z,20.17
2018-03-18T10:27:16.852Z,15.47
2018-03-18T10:29:45.197Z,22.53
2018-03-18T10:32:13.512Z,18.55
2018-03-18T10:34:41.849Z,15.90
2018-03-18T10:37:10.176Z,17.48
2018-03-18T10:39:38.554Z,20.43
2018-03-18T10:42:06.925Z,18.98
2018-03-18T10:44:35.252Z,17.72
2018-03-18T10:47:03.588Z,17.98
2018-03-18T10:49:31.938Z,16.25
2018-03-18T10:52:00.268Z,17.58
2018-03-18T10:54:28.613Z,21.23
2018-03-18T10:56:56.934Z,17.18
2018-03-18T10:59:25.276Z,23.93
2018-03-18T11:01:55.347Z,21.67
2018-03-18T11:04:23.699Z,19.87
2018-03-18T11:06:52.023Z,15.85
2018-03-18T11:09:20.375Z,16.03
2018-03-18T11:11:48.709Z,19.18
2018-03-18T11:14:17.056Z,19.53
2018-03-18T11:16:45.488Z,24.13
2018-03-18T11:19:13.842Z,23.47
2018-03-18T11:21:42.207Z,22.45
2018-03-18T11:24:10.692Z,16.18
2018-03-18T11:26:39.110Z,23.02
2018-03-18T11:29:07.443Z,21.78
2018-03-18T11:31:35.760Z,19.33
2018-03-18T11:34:04.116Z,19.68
2018-03-18T11:36:32.434Z,17.78
2018-03-18T11:39:00.758Z,20.47
2018-03-18T11:41:29.094Z,19.30
2018-03-18T11:43:57.406Z,16.68
2018-03-18T11:46:25.736Z,20.52
2018-03-18T11:48:54.052Z,19.65
2018-03-18T11:51:22.401Z,16.38
2018-03-18T11:53:50.716Z,14.02
2018-03-18T11:56:19.062Z,18.87
2018-03-18T11:58:47.391Z,16.50
2018-03-18T12:01:15.752Z,18.70
2018-03-18T12:03:44.071Z,16.02
2018-03-18T12:06:12.420Z,20.62
2018-03-18T12:08:52.644Z,21.17
2018-03-18T12:11:20.992Z,20.17
2018-03-18T12:13:49.324Z,15.92
2018-03-18T12:16:17.667Z,22.42
2018-03-18T12:18:45.992Z,17.53
2018-03-18T12:21:14.339Z,18.20
2018-03-18T12:23:42.656Z,21.80
2018-03-18T12:26:10.990Z,16.43
2018-03-18T12:28:39.306Z,23.42
2018-03-18T12:31:07.652Z,20.62
2018-03-18T12:33:35.971Z,19.40
2018-03-18T12:36:04.311Z,15.62
2018-03-18T12:38:32.622Z,19.32
2018-03-18T12:41:00.964Z,19.15
2018-03-18T12:43:30.226Z,17.17
2018-03-18T12:45:58.633Z,22.85
2018-03-18T12:48:27.010Z,18.40
2018-03-18T12:50:55.357Z,18.18
2018-03-18T12:53:23.697Z,16.90
2018-03-18T12:55:52.039Z,17.30
2018-03-18T12:58:20.363Z,18.85
2018-03-18T13:00:48.707Z,18.17
2018-03-18T13:03:17.032Z,16.40
2018-03-18T13:05:45.367Z,16.62
2018-03-18T13:08:13.734Z,16.68
2018-03-18T13:10:42.053Z,20.62
2018-03-18T13:13:10.423Z,36.47
2018-03-18T13:15:38.746Z,20.77
2018-03-18T13:18:07.099Z,18.38
2018-03-18T13:20:35.443Z,18.12
2018-03-18T13:23:03.795Z,18.47
2018-03-18T13:25:32.120Z,16.85
2018-03-18T13:28:00.462Z,14.48
2018-03-18T13:30:28.788Z,15.77
2018-03-18T13:32:57.137Z,13.40
2018-03-18T13:35:25.459Z,16.45
2018-03-18T13:37:53.798Z,21.15
2018-03-18T13:40:22.119Z,18.12
2018-03-18T13:42:50.455Z,16.90
2018-03-18T13:45:18.781Z,14.17
2018-03-18T13:47:47.127Z,16.45
2018-03-18T13:50:15.467Z,17.05
2018-03-18T13:52:43.812Z,18.03
2018-03-18T13:55:12.144Z,17.92
2018-03-18T13:57:40.486Z,16.28
2018-03-18T14:00:08.838Z,21.17
2018-03-18T14:02:37.167Z,17.15
2018-03-18T14:05:05.492Z,16.52
2018-03-18T14:07:33.827Z,13.07
2018-03-18T14:10:02.147Z,16.53
2018-03-18T14:12:30.491Z,12.27
2018-03-18T14:14:58.805Z,18.27
2018-03-18T14:17:27.149Z,17.48
2018-03-18T14:19:55.472Z,16.55
2018-03-18T14:22:23.816Z,25.05
2018-03-18T14:24:52.147Z,17.57
2018-03-18T14:27:19.731Z,16.42
2018-03-18T14:29:48.056Z,37.83
2018-03-18T14:32:16.416Z,23.13
2018-03-18T14:34:44.753Z,21.33
2018-03-18T14:37:13.099Z,18.73
2018-03-18T14:39:41.420Z,21.92
2018-03-18T14:42:09.764Z,21.10
2018-03-18T14:44:38.086Z,14.88
2018-03-18T14:47:06.423Z,16.33
2018-03-18T14:49:34.730Z,18.32
2018-03-18T14:52:03.083Z,16.33
2018-03-18T14:54:31.407Z,19.80
2018-03-18T14:56:59.756Z,15.35
2018-03-18T14:59:28.075Z,17.07
2018-03-18T15:01:56.397Z,18.42
2018-03-18T15:04:24.798Z,22.85
2018-03-18T15:06:53.131Z,19.35
2018-03-18T15:09:21.472Z,63.22
2018-03-18T15:11:49.795Z,25.08
2018-03-18T15:14:18.147Z,45.98
2018-03-18T15:16:46.466Z,19.83
2018-03-18T15:19:14.814Z,19.95
2018-03-18T15:21:43.127Z,14.28
2018-03-18T15:24:11.468Z,18.97
2018-03-18T15:26:39.803Z,16.25
2018-03-18T15:29:08.147Z,18.20
2018-03-18T15:31:36.474Z,23.32
2018-03-18T15:34:04.872Z,14.97
2018-03-18T15:36:33.209Z,18.87
2018-03-18T15:39:01.547Z,23.33
2018-03-18T15:41:29.871Z,46.15
2018-03-18T15:43:58.205Z,22.72
2018-03-18T15:46:26.528Z,16.47
2018-03-18T15:48:54.867Z,20.18
2018-03-18T15:51:23.186Z,24.57
2018-03-18T15:53:51.534Z,18.55
2018-03-18T15:56:19.847Z,14.87
2018-03-18T15:58:48.210Z,19.57
2018-03-18T16:01:16.560Z,15.37
2018-03-18T16:03:44.922Z,14.77
2018-03-18T16:08:46.983Z,13.68
2018-03-18T16:11:15.298Z,16.35
2018-03-18T16:13:42.876Z,14.53
2018-03-18T16:16:11.195Z,13.37
2018-03-18T16:18:39.541Z,12.90
2018-03-18T16:21:07.886Z,12.77
2018-03-18T16:23:36.226Z,14.78
2018-03-18T16:26:04.553Z,15.50
2018-03-18T16:28:32.900Z,14.57
2018-03-18T16:31:22.030Z,17.88
2018-03-18T16:33:50.381Z,16.25
2018-03-18T16:36:18.716Z,13.53
2018-03-18T16:38:47.066Z,16.08
2018-03-18T16:41:15.384Z,12.98
2018-03-18T16:43:43.745Z,12.70
2018-03-18T16:46:12.066Z,15.10
2018-03-18T16:48:40.403Z,16.53
2018-03-18T16:51:08.724Z,12.92
2018-03-18T16:53:37.062Z,12.63
2018-03-18T16:56:05.375Z,15.12
2018-03-18T16:58:33.707Z,12.62
2018-03-18T17:01:02.027Z,12.38
2018-03-18T17:03:30.360Z,13.22
2018-03-18T17:05:58.703Z,14.92
2018-03-18T17:08:27.014Z,14.55
2018-03-18T17:10:55.350Z,11.77
2018-03-18T17:13:23.674Z,14.32
2018-03-18T17:15:52.013Z,14.55
2018-03-18T17:18:20.337Z,11.77
2018-03-18T17:20:48.676Z,13.05
2018-03-18T17:23:16.995Z,25.17
2018-03-18T17:25:45.347Z,31.68
2018-03-18T17:28:13.664Z,12.87
2018-03-18T17:30:42.001Z,13.20
2018-03-18T17:33:10.322Z,11.52
2018-03-18T17:35:38.692Z,15.10
2018-03-18T17:38:07.015Z,13.23
2018-03-18T17:40:35.385Z,15.87
2018-03-18T17:43:03.712Z,18.53
2018-03-18T17:45:43.922Z,14.43
2018-03-18T17:48:24.078Z,16.80
2018-03-18T17:51:04.390Z,8.43
2018-03-18T17:53:44.441Z,14.07
2018-03-18T17:56:24.656Z,12.68
2018-03-18T17:58:53.002Z,14.67
2018-03-18T18:01:21.344Z,15.40
2018-03-18T18:03:49.663Z,23.23
2018-03-18T18:06:18.011Z,13.82
2018-03-18T18:08:46.394Z,13.50
2018-03-18T18:11:14.911Z,12.32
2018-03-18T18:13:43.226Z,12.18
2018-03-18T18:16:11.603Z,11.95
2018-03-18T18:18:39.918Z,10.60
2018-03-18T18:21:08.317Z,13.02
2018-03-18T18:23:36.644Z,19.65
2018-03-18T18:26:04.987Z,18.70
2018-03-18T18:28:33.310Z,29.37
2018-03-18T18:31:01.648Z,12.23
2018-03-18T18:33:29.971Z,13.92
2018-03-18T18:35:58.303Z,15.07
2018-03-18T18:38:26.613Z,8.75
2018-03-18T18:40:55.004Z,13.67
2018-03-18T18:43:23.417Z,13.77
2018-03-18T18:45:51.786Z,13.72
2018-03-18T18:48:20.180Z,12.08
2018-03-18T18:50:48.523Z,13.83
2018-03-18T18:53:16.837Z,13.78
2018-03-18T18:55:45.173Z,10.70
2018-03-18T18:58:13.488Z,11.12
2018-03-18T19:00:41.822Z,14.50
2018-03-18T19:03:10.198Z,12.35
2018-03-18T19:05:38.519Z,11.78
2018-03-18T19:08:06.834Z,10.35
2018-03-18T19:10:35.184Z,11.32
2018-03-18T19:13:03.561Z,11.60
2018-03-18T19:15:31.879Z,10.60
2018-03-18T19:18:00.227Z,13.52
2018-03-18T19:20:28.540Z,12.75
2018-03-18T19:22:56.891Z,11.57
2018-03-18T19:25:25.215Z,8.30
2018-03-18T19:27:53.599Z,10.90
2018-03-18T19:30:21.914Z,12.30
2018-03-18T19:32:50.256Z,13.88
2018-03-18T19:35:18.576Z,8.85
2018-03-18T19:37:46.914Z,12.83
2018-03-18T19:40:15.230Z,10.68
2018-03-18T19:42:43.575Z,12.80
2018-03-18T19:45:11.901Z,11.78
2018-03-18T19:47:40.255Z,16.42
2018-03-18T19:50:08.571Z,11.87
2018-03-18T19:52:36.920Z,12.98
2018-03-18T19:55:05.255Z,16.53
2018-03-18T19:57:33.621Z,9.92
2018-03-18T20:00:01.932Z,9.33
2018-03-18T20:02:30.266Z,8.93
2018-03-18T20:04:58.574Z,10.82
2018-03-18T20:07:26.931Z,10.65
2018-03-18T20:09:55.283Z,11.75
2018-03-18T20:12:23.631Z,11.00
2018-03-18T20:14:51.948Z,10.72
2018-03-18T20:17:20.287Z,13.13
2018-03-18T20:19:48.615Z,13.92
2018-03-18T20:22:16.949Z,12.68
2018-03-18T20:24:45.271Z,12.95
2018-03-18T20:27:13.715Z,9.98
2018-03-18T20:29:42.032Z,9.88
2018-03-18T20:32:10.413Z,12.15
2018-03-18T20:34:38.743Z,10.48
2018-03-18T20:37:07.139Z,10.85
2018-03-18T20:39:35.491Z,9.93
2018-03-18T20:42:03.826Z,11.95
2018-03-18T20:44:32.172Z,9.72
2018-03-18T20:47:00.551Z,18.45
2018-03-18T20:49:28.865Z,12.53
2018-03-18T20:51:57.183Z,11.98
2018-03-18T20:54:25.521Z,13.28
2018-03-18T20:56:53.846Z,16.13
2018-03-18T20:59:22.207Z,14.57
2018-03-18T21:01:50.534Z,9.65
2018-03-18T21:04:18.924Z,15.85
2018-03-18T21:06:47.242Z,11.62
2018-03-18T21:09:15.699Z,13.57
2018-03-18T21:11:44.048Z,15.40
2018-03-18T21:14:12.447Z,12.68
2018-03-18T21:16:40.759Z,12.85
2018-03-18T21:19:09.147Z,10.27
2018-03-18T21:21:37.446Z,10.05
2018-03-18T21:24:05.821Z,10.88
2018-03-18T21:26:34.165Z,11.43
2018-03-18T21:29:02.512Z,9.65
2018-03-18T21:31:30.837Z,15.70
2018-03-18T21:33:59.170Z,12.32
2018-03-18T21:36:27.505Z,10.67
2018-03-18T21:38:55.847Z,13.35
2018-03-18T21:41:24.173Z,11.47
2018-03-18T21:43:52.514Z,9.22
2018-03-18T21:46:20.836Z,8.48
2018-03-18T21:48:49.172Z,10.18
2018-03-18T21:51:17.499Z,14.40
2018-03-18T21:53:45.846Z,10.77
2018-03-18T21:56:14.160Z,10.93
2018-03-18T21:58:42.494Z,10.38
2018-03-18T22:01:10.875Z,9.13
2018-03-18T22:03:39.216Z,13.53
2018-03-18T22:06:07.539Z,13.43
2018-03-18T22:08:35.881Z,14.07
2018-03-18T22:11:04.199Z,10.57
2018-03-18T22:13:32.539Z,8.78
2018-03-18T22:16:00.854Z,29.90
2018-03-18T22:18:29.193Z,11.53
2018-03-18T22:20:57.504Z,10.27
2018-03-18T22:23:25.846Z,11.68
2018-03-18T22:25:54.175Z,11.20
2018-03-18T22:28:22.663Z,24.98
2018-03-18T22:30:50.991Z,16.35
2018-03-18T22:33:19.351Z,9.62
2018-03-18T22:35:47.669Z,16.90
2018-03-18T22:38:15.983Z,19.73
2018-03-18T22:40:44.315Z,11.53
2018-03-18T22:43:12.626Z,12.55
2018-03-18T22:45:40.975Z,28.12
2018-03-18T22:48:09.314Z,13.15
2018-03-18T22:50:37.661Z,15.37
2018-03-18T22:53:05.983Z,11.83
2018-03-18T22:55:34.317Z,16.10
2018-03-18T22:58:02.643Z,13.25
2018-03-18T23:00:30.982Z,13.60
2018-03-18T23:02:59.534Z,10.67
2018-03-18T23:05:27.894Z,16.07
2018-03-18T23:07:56.198Z,13.68
2018-03-18T23:10:24.535Z,9.72
2018-03-18T23:12:52.856Z,9.88
2018-03-18T23:15:21.207Z,11.40
2018-03-18T23:17:52.222Z,11.23
2018-03-18T23:20:20.555Z,12.52
2018-03-18T23:22:48.870Z,11.58
2018-03-18T23:25:17.207Z,12.10
2018-03-18T23:27:45.524Z,14.55
2018-03-18T23:30:13.860Z,11.27
2018-03-18T23:32:42.180Z,11.48
2018-03-18T23:35:10.513Z,9.13
2018-03-18T23:37:39.320Z,12.18
2018-03-18T23:40:07.669Z,12.13
2018-03-18T23:42:36.040Z,9.62
2018-03-18T23:45:04.350Z,12.05
2018-03-18T23:47:32.671Z,12.98
2018-03-18T23:50:01.009Z,14.13
2018-03-18T23:52:29.319Z,12.70
2018-03-18T23:54:57.661Z,12.42
2018-03-18T23:57:25.978Z,16.63
2018-03-18T23:59:54.308Z,20.05
